Time;durP1;ratioP1;P1;durP2;ratioP2;P2;SDS_P1;SDS_P2;PMS_P1;PMS_P2;Temp;Humidity;BMP_temperature;BMP_pressure;BME280_temperature;BME280_humidity;BME280_pressure;Samples;Min_cycle;Max_cycle;Signal;HPM_P1;HPM_P2
2023/08/05 00:00:43;;;;;;;;;;;21.40;55.40;;;;;;5101871;28;19939;-60
2023/08/05 00:03:10;;;;;;;;;;;21.30;55.90;;;;;;5096699;28;19924;-62
2023/08/05 00:05:37;;;;;;;;;;;21.30;55.30;;;;;;5100527;28;19924;-60
2023/08/05 00:08:04;;;;;;;;;;;21.40;55.30;;;;;;5117783;27;19924;-61
2023/08/05 00:10:31;;;;;;;;;;;21.30;55.20;;;;;;5114541;27;19924;-63
2023/08/05 00:12:59;;;;;;;;;;;21.30;55.20;;;;;;5117477;27;19967;-60
2023/08/05 00:15:26;;;;;;;;;;;21.30;55.20;;;;;;5095570;28;19923;-61
2023/08/05 00:17:53;;;;;;;;;;;21.30;55.20;;;;;;5100203;28;19927;-62
2023/08/05 00:20:20;;;;;;;;;;;21.30;55.10;;;;;;5097841;28;19980;-60
2023/08/05 00:22:46;;;;;;;;;;;21.30;55.10;;;;;;5099072;27;19992;-59
2023/08/05 00:25:13;;;;;;;;;;;21.30;55.10;;;;;;5094457;28;19931;-61
2023/08/05 00:27:40;;;;;;;;;;;21.30;55.20;;;;;;5077554;28;19924;-61
2023/08/05 00:30:09;;;;;;;;;;;21.30;55.20;;;;;;5097752;28;19920;-60
2023/08/05 00:32:36;;;;;;;;;;;21.30;55.20;;;;;;5111746;27;19932;-60
2023/08/05 00:35:03;;;;;;;;;;;21.30;55.20;;;;;;5113922;27;20428;-60
2023/08/05 00:37:30;;;;;;;;;;;21.30;55.20;;;;;;5092953;28;19919;-60
2023/08/05 00:39:56;;;;;;;;;;;21.30;55.20;;;;;;5098783;28;19931;-60
2023/08/05 00:42:23;;;;;;;;;;;21.30;55.20;;;;;;5104638;28;19924;-59
2023/08/05 00:44:50;;;;;;;;;;;21.30;55.20;;;;;;5096136;28;19924;-60
2023/08/05 00:47:18;;;;;;;;;;;21.30;55.20;;;;;;5101305;27;20357;-59
2023/08/05 00:49:45;;;;;;;;;;;21.30;55.20;;;;;;5098743;28;19967;-60
2023/08/05 00:52:12;;;;;;;;;;;21.30;55.30;;;;;;5102167;27;19978;-60
2023/08/05 00:54:39;;;;;;;;;;;21.30;55.30;;;;;;5117427;27;20567;-60
2023/08/05 00:57:06;;;;;;;;;;;21.30;55.30;;;;;;5093935;28;20407;-60
2023/08/05 00:59:33;;;;;;;;;;;21.30;55.40;;;;;;5120746;27;19931;-61
2023/08/05 01:01:59;;;;;;;;;;;21.30;55.40;;;;;;5116909;27;19932;-59
2023/08/05 01:04:28;;;;;;;;;;;21.30;55.40;;;;;;5107363;27;19977;-60
2023/08/05 01:06:54;;;;;;;;;;;21.30;55.40;;;;;;5091818;28;19928;-60
2023/08/05 01:09:21;;;;;;;;;;;21.30;55.40;;;;;;5115269;27;19931;-61
2023/08/05 01:11:48;;;;;;;;;;;21.30;56.00;;;;;;5096177;28;19930;-61
2023/08/05 01:14:15;;;;;;;;;;;21.30;55.40;;;;;;5117271;27;19938;-60
2023/08/05 01:16:41;;;;;;;;;;;21.30;55.40;;;;;;5120590;27;19930;-59
2023/08/05 01:19:09;;;;;;;;;;;21.30;55.40;;;;;;5096073;28;19924;-59
2023/08/05 01:21:39;;;;;;;;;;;21.30;55.40;;;;;;5094999;28;19924;-59
2023/08/05 01:24:08;;;;;;;;;;;21.30;55.40;;;;;;5098956;28;19973;-60
2023/08/05 01:26:37;;;;;;;;;;;21.30;55.40;;;;;;5123346;27;19950;-60
2023/08/05 01:29:04;;;;;;;;;;;21.30;55.40;;;;;;5090861;28;19977;-59
2023/08/05 01:31:30;;;;;;;;;;;21.30;55.40;;;;;;5114055;28;19923;-59
2023/08/05 01:33:57;;;;;;;;;;;21.30;55.40;;;;;;5114800;27;19934;-60
2023/08/05 01:36:24;;;;;;;;;;;21.30;55.40;;;;;;5095306;27;19931;-59
2023/08/05 01:38:51;;;;;;;;;;;21.30;55.40;;;;;;5095734;27;19934;-60
2023/08/05 01:41:17;;;;;;;;;;;21.30;55.40;;;;;;5096022;28;19923;-60
2023/08/05 01:43:45;;;;;;;;;;;21.30;55.40;;;;;;5095936;28;20167;-60
2023/08/05 01:46:12;;;;;;;;;;;21.30;55.50;;;;;;5095703;27;19928;-60
2023/08/05 01:48:41;;;;;;;;;;;21.30;55.40;;;;;;5109446;28;19932;-61
2023/08/05 01:51:07;;;;;;;;;;;21.30;55.40;;;;;;5115647;27;19924;-58
2023/08/05 01:53:34;;;;;;;;;;;21.30;55.40;;;;;;5094665;28;19936;-59
2023/08/05 01:56:01;;;;;;;;;;;21.30;55.40;;;;;;5088851;28;19924;-60
2023/08/05 01:58:28;;;;;;;;;;;21.30;55.40;;;;;;5094700;28;19931;-59
2023/08/05 02:00:56;;;;;;;;;;;21.30;55.40;;;;;;5119266;27;19931;-59
2023/08/05 02:03:23;;;;;;;;;;;21.30;55.50;;;;;;5092242;28;19931;-60
2023/08/05 02:05:49;;;;;;;;;;;21.30;55.50;;;;;;5098189;27;19923;-59
2023/08/05 02:08:16;;;;;;;;;;;21.30;55.50;;;;;;5094303;27;20441;-60
2023/08/05 02:10:43;;;;;;;;;;;21.30;55.50;;;;;;5126959;27;19935;-59
2023/08/05 02:13:10;;;;;;;;;;;21.30;55.50;;;;;;5110283;27;19960;-61
2023/08/05 02:15:37;;;;;;;;;;;21.30;55.50;;;;;;5101276;28;19927;-60
2023/08/05 02:18:05;;;;;;;;;;;21.30;55.50;;;;;;5097690;28;19928;-61
2023/08/05 02:20:32;;;;;;;;;;;21.30;55.50;;;;;;5097808;27;19928;-59
2023/08/05 02:22:58;;;;;;;;;;;21.30;55.60;;;;;;5111857;27;19923;-59
2023/08/05 02:25:25;;;;;;;;;;;21.30;55.50;;;;;;5094343;27;19932;-60
2023/08/05 02:27:53;;;;;;;;;;;21.30;55.60;;;;;;5120064;27;19932;-59
2023/08/05 02:30:20;;;;;;;;;;;21.30;55.60;;;;;;5103609;28;19924;-60
2023/08/05 02:32:46;;;;;;;;;;;21.30;55.60;;;;;;5090994;28;19928;-60
2023/08/05 02:35:14;;;;;;;;;;;21.30;55.60;;;;;;5117321;27;19959;-59
2023/08/05 02:37:41;;;;;;;;;;;21.30;56.10;;;;;;5111211;27;19924;-60
2023/08/05 02:40:08;;;;;;;;;;;21.30;55.60;;;;;;5111005;27;19924;-59
2023/08/05 02:42:35;;;;;;;;;;;21.30;55.60;;;;;;5095413;27;19931;-60
2023/08/05 02:45:02;;;;;;;;;;;21.30;55.60;;;;;;5100256;28;19985;-60
2023/08/05 02:47:29;;;;;;;;;;;21.30;55.60;;;;;;5092129;28;19931;-58
2023/08/05 02:49:55;;;;;;;;;;;21.30;55.60;;;;;;5094619;28;19984;-60
2023/08/05 02:52:23;;;;;;;;;;;21.30;55.60;;;;;;5094554;27;20348;-60
2023/08/05 02:54:50;;;;;;;;;;;21.30;55.60;;;;;;5094599;28;20360;-60
2023/08/05 02:57:17;;;;;;;;;;;21.30;55.60;;;;;;5101397;28;19988;-59
2023/08/05 02:59:44;;;;;;;;;;;21.30;55.60;;;;;;5096851;28;19935;-60
2023/08/05 03:02:14;;;;;;;;;;;21.30;55.60;;;;;;5092142;28;19923;-61
2023/08/05 03:04:41;;;;;;;;;;;21.30;55.60;;;;;;5118699;27;19924;-61
2023/08/05 03:07:07;;;;;;;;;;;21.30;55.60;;;;;;5095405;28;19924;-61
2023/08/05 03:09:36;;;;;;;;;;;21.30;55.60;;;;;;5110144;28;19924;-59
2023/08/05 03:12:07;;;;;;;;;;;21.30;55.70;;;;;;5093690;28;19924;-61
2023/08/05 03:14:33;;;;;;;;;;;21.30;55.70;;;;;;5113661;28;19932;-60
2023/08/05 03:17:00;;;;;;;;;;;21.30;55.70;;;;;;5110058;28;19924;-61
2023/08/05 03:19:27;;;;;;;;;;;21.30;55.70;;;;;;5114026;28;19924;-60
2023/08/05 03:21:54;;;;;;;;;;;21.30;55.70;;;;;;5111494;28;19924;-60
2023/08/05 03:24:20;;;;;;;;;;;21.30;55.70;;;;;;5096995;28;19927;-59
2023/08/05 03:26:49;;;;;;;;;;;21.30;55.70;;;;;;5097430;27;19927;-60
2023/08/05 03:29:15;;;;;;;;;;;21.30;55.70;;;;;;5103433;28;19930;-60
2023/08/05 03:31:42;;;;;;;;;;;21.30;55.60;;;;;;5097227;28;20373;-60
2023/08/05 03:34:09;;;;;;;;;;;21.30;55.60;;;;;;5117250;27;19928;-61
2023/08/05 03:36:36;;;;;;;;;;;21.30;55.60;;;;;;5124475;27;19928;-60
2023/08/05 03:39:03;;;;;;;;;;;21.30;55.60;;;;;;5090678;28;19959;-60
2023/08/05 03:41:30;;;;;;;;;;;21.30;55.60;;;;;;5123372;27;19928;-60
2023/08/05 03:43:58;;;;;;;;;;;21.30;55.60;;;;;;5123748;27;19990;-60
2023/08/05 03:46:25;;;;;;;;;;;21.30;55.70;;;;;;5097805;28;20439;-59
2023/08/05 03:48:51;;;;;;;;;;;21.30;55.70;;;;;;5115933;27;19927;-62
2023/08/05 03:51:18;;;;;;;;;;;21.30;55.70;;;;;;5121950;27;19927;-59
2023/08/05 03:53:45;;;;;;;;;;;21.30;55.80;;;;;;5110655;27;19931;-60
2023/08/05 03:56:12;;;;;;;;;;;21.30;55.80;;;;;;5114794;27;19962;-60
2023/08/05 03:58:38;;;;;;;;;;;21.30;55.80;;;;;;5099877;28;19946;-60
2023/08/05 04:01:07;;;;;;;;;;;21.30;55.80;;;;;;5123478;27;20364;-61
2023/08/05 04:03:39;;;;;;;;;;;21.30;55.80;;;;;;5112869;27;20007;-61
2023/08/05 04:06:07;;;;;;;;;;;21.30;55.90;;;;;;5095045;28;19948;-61
2023/08/05 04:08:34;;;;;;;;;;;21.30;55.80;;;;;;5100553;27;19923;-62
2023/08/05 04:11:01;;;;;;;;;;;21.30;55.90;;;;;;5113050;28;19924;-60
2023/08/05 04:13:28;;;;;;;;;;;21.30;55.80;;;;;;5114013;27;19923;-60
2023/08/05 04:15:56;;;;;;;;;;;21.30;55.80;;;;;;5129258;27;20522;-61
2023/08/05 04:18:24;;;;;;;;;;;21.30;55.80;;;;;;5105222;27;19923;-61
2023/08/05 04:20:51;;;;;;;;;;;21.30;55.80;;;;;;5110555;28;19935;-62
2023/08/05 04:23:20;;;;;;;;;;;21.30;55.80;;;;;;5096071;27;20015;-62
2023/08/05 04:25:47;;;;;;;;;;;21.30;55.80;;;;;;5099935;27;19932;-60
2023/08/05 04:28:16;;;;;;;;;;;21.30;55.80;;;;;;5102976;27;19927;-62
2023/08/05 04:30:43;;;;;;;;;;;21.30;55.80;;;;;;5121092;27;19928;-60
2023/08/05 04:33:14;;;;;;;;;;;21.30;55.90;;;;;;5107682;27;19923;-61
2023/08/05 04:35:46;;;;;;;;;;;21.30;55.90;;;;;;5114456;28;19924;-61
2023/08/05 04:38:13;;;;;;;;;;;21.30;55.90;;;;;;5104702;27;20018;-59
2023/08/05 04:40:39;;;;;;;;;;;21.30;55.90;;;;;;5092721;27;19950;-60
2023/08/05 04:43:06;;;;;;;;;;;21.30;55.90;;;;;;5096557;28;20289;-62
2023/08/05 04:45:36;;;;;;;;;;;21.30;55.90;;;;;;5130155;27;19981;-61
2023/08/05 04:48:04;;;;;;;;;;;21.30;55.90;;;;;;5104669;28;19955;-61
2023/08/05 04:50:30;;;;;;;;;;;21.30;55.90;;;;;;5104922;28;19936;-62
2023/08/05 04:52:59;;;;;;;;;;;21.30;55.90;;;;;;5099396;28;19932;-61
2023/08/05 04:55:25;;;;;;;;;;;21.30;55.90;;;;;;5113432;27;20261;-60
2023/08/05 04:57:52;;;;;;;;;;;21.30;55.90;;;;;;5117032;27;19932;-61
2023/08/05 05:00:19;;;;;;;;;;;21.30;55.90;;;;;;5122945;27;19965;-61
2023/08/05 05:02:46;;;;;;;;;;;21.30;55.90;;;;;;5101792;28;19924;-60
2023/08/05 05:05:13;;;;;;;;;;;21.30;55.90;;;;;;5112742;27;19932;-61
2023/08/05 05:07:40;;;;;;;;;;;21.30;55.90;;;;;;5109774;28;19935;-62
2023/08/05 05:10:08;;;;;;;;;;;21.30;55.90;;;;;;5104368;27;19984;-61
2023/08/05 05:12:35;;;;;;;;;;;21.30;55.90;;;;;;5099794;27;19924;-61
2023/08/05 05:15:02;;;;;;;;;;;21.30;56.00;;;;;;5108854;27;19924;-59
2023/08/05 05:17:33;;;;;;;;;;;21.30;56.00;;;;;;5104543;27;19932;-60
2023/08/05 05:20:00;;;;;;;;;;;21.30;56.00;;;;;;5127260;27;19928;-62
2023/08/05 05:22:26;;;;;;;;;;;21.30;56.10;;;;;;5116323;27;19928;-62
2023/08/05 05:24:53;;;;;;;;;;;21.30;56.10;;;;;;5125999;27;19930;-60
2023/08/05 05:27:21;;;;;;;;;;;21.40;56.20;;;;;;5111391;27;19980;-61
2023/08/05 05:29:48;;;;;;;;;;;21.30;56.10;;;;;;5103940;28;19932;-61
2023/08/05 05:32:15;;;;;;;;;;;21.30;56.10;;;;;;5104993;27;19927;-61
2023/08/05 05:34:42;;;;;;;;;;;21.40;56.20;;;;;;5134303;27;19931;-60
2023/08/05 05:37:08;;;;;;;;;;;21.30;56.20;;;;;;5114400;27;19928;-60
2023/08/05 05:39:35;;;;;;;;;;;21.30;56.20;;;;;;5103590;28;19939;-61
2023/08/05 05:42:02;;;;;;;;;;;21.40;56.30;;;;;;5096442;28;19923;-60
2023/08/05 05:44:30;;;;;;;;;;;21.30;56.30;;;;;;5105581;27;19927;-61
2023/08/05 05:46:57;;;;;;;;;;;21.30;56.30;;;;;;5100096;28;19935;-60
2023/08/05 05:49:24;;;;;;;;;;;21.30;56.30;;;;;;5132658;27;19924;-61
2023/08/05 05:51:50;;;;;;;;;;;21.30;56.30;;;;;;5098814;27;19924;-59
2023/08/05 05:54:17;;;;;;;;;;;21.30;56.30;;;;;;5102520;27;19928;-59
2023/08/05 05:56:44;;;;;;;;;;;21.40;56.40;;;;;;5105978;27;20562;-62
2023/08/05 05:59:11;;;;;;;;;;;21.30;56.30;;;;;;5106502;28;19924;-61
2023/08/05 06:01:39;;;;;;;;;;;21.40;56.40;;;;;;5112514;27;20544;-62
2023/08/05 06:04:09;;;;;;;;;;;21.40;56.40;;;;;;5102538;27;19927;-62
2023/08/05 06:06:35;;;;;;;;;;;21.40;56.40;;;;;;5102111;28;19923;-61
2023/08/05 06:09:03;;;;;;;;;;;21.40;56.50;;;;;;5102786;28;19931;-60
2023/08/05 06:11:31;;;;;;;;;;;21.30;56.40;;;;;;5122240;27;19928;-59
2023/08/05 06:13:57;;;;;;;;;;;21.40;56.50;;;;;;5110563;27;20006;-60
2023/08/05 06:16:24;;;;;;;;;;;21.40;56.50;;;;;;5097258;27;19927;-61
2023/08/05 06:18:53;;;;;;;;;;;21.40;56.60;;;;;;5093787;27;19927;-61
2023/08/05 06:21:19;;;;;;;;;;;21.40;56.60;;;;;;5110937;27;19931;-60
2023/08/05 06:23:46;;;;;;;;;;;21.40;56.60;;;;;;5107401;27;19931;-59
2023/08/05 06:26:13;;;;;;;;;;;21.40;56.60;;;;;;5097027;27;19923;-60
2023/08/05 06:28:40;;;;;;;;;;;21.40;56.60;;;;;;5105282;27;19976;-61
2023/08/05 06:31:06;;;;;;;;;;;21.40;56.60;;;;;;5115258;27;19924;-60
2023/08/05 06:33:33;;;;;;;;;;;21.40;56.60;;;;;;5096376;27;19923;-59
2023/08/05 06:36:01;;;;;;;;;;;21.40;56.60;;;;;;5098851;28;19936;-60
2023/08/05 06:38:28;;;;;;;;;;;21.40;56.60;;;;;;5103402;27;19931;-61
2023/08/05 06:40:55;;;;;;;;;;;21.40;56.60;;;;;;5101813;28;19931;-61
2023/08/05 06:43:22;;;;;;;;;;;21.40;56.70;;;;;;5096429;27;20300;-60
2023/08/05 06:45:48;;;;;;;;;;;21.40;56.70;;;;;;5102375;27;19931;-60
2023/08/05 06:48:15;;;;;;;;;;;21.40;56.70;;;;;;5110518;27;20412;-59
2023/08/05 06:50:42;;;;;;;;;;;21.40;56.70;;;;;;5105496;27;19992;-60
2023/08/05 06:53:10;;;;;;;;;;;21.40;56.70;;;;;;5092379;28;19970;-60
2023/08/05 06:55:37;;;;;;;;;;;21.40;56.70;;;;;;5125629;27;19977;-60
2023/08/05 06:58:04;;;;;;;;;;;21.40;56.80;;;;;;5109210;27;19931;-59
2023/08/05 07:00:31;;;;;;;;;;;21.40;56.80;;;;;;5096176;27;19953;-59
2023/08/05 07:02:58;;;;;;;;;;;21.40;56.80;;;;;;5116560;27;19924;-61
2023/08/05 07:05:25;;;;;;;;;;;21.40;56.80;;;;;;5099285;28;19956;-60
2023/08/05 07:07:51;;;;;;;;;;;21.40;56.80;;;;;;5135158;27;19928;-59
2023/08/05 07:10:20;;;;;;;;;;;21.40;56.80;;;;;;5102758;28;19974;-60
2023/08/05 07:12:46;;;;;;;;;;;21.40;56.90;;;;;;5104236;28;19924;-60
2023/08/05 07:15:13;;;;;;;;;;;21.40;56.80;;;;;;5119488;28;19924;-61
2023/08/05 07:17:41;;;;;;;;;;;21.40;56.80;;;;;;5102591;28;19936;-59
2023/08/05 07:20:08;;;;;;;;;;;21.40;56.80;;;;;;5120047;28;19923;-60
2023/08/05 07:22:35;;;;;;;;;;;21.40;56.80;;;;;;5121902;28;19924;-61
2023/08/05 07:25:02;;;;;;;;;;;21.40;56.80;;;;;;5122612;28;19923;-60
2023/08/05 07:27:30;;;;;;;;;;;21.40;56.80;;;;;;5102146;28;19941;-60
2023/08/05 07:29:57;;;;;;;;;;;21.40;56.80;;;;;;5109024;28;20292;-61
2023/08/05 07:32:24;;;;;;;;;;;21.40;56.80;;;;;;5101902;28;19923;-60
2023/08/05 07:34:53;;;;;;;;;;;21.40;56.80;;;;;;5125527;28;19981;-60
2023/08/05 07:37:22;;;;;;;;;;;21.40;56.80;;;;;;5104104;28;19931;-61
2023/08/05 07:39:50;;;;;;;;;;;21.40;56.70;;;;;;5089096;28;19924;-60
2023/08/05 07:42:19;;;;;;;;;;;21.40;56.70;;;;;;5114890;28;19923;-61
2023/08/05 07:44:47;;;;;;;;;;;21.40;56.70;;;;;;5095084;28;19985;-61
2023/08/05 07:47:14;;;;;;;;;;;21.40;56.70;;;;;;5102997;28;19928;-61
2023/08/05 07:49:41;;;;;;;;;;;21.40;56.60;;;;;;5105331;28;19999;-60
2023/08/05 07:52:08;;;;;;;;;;;21.40;56.60;;;;;;5107084;28;20388;-60
2023/08/05 07:54:35;;;;;;;;;;;21.40;56.60;;;;;;5112935;28;19924;-60
2023/08/05 07:57:01;;;;;;;;;;;21.40;56.50;;;;;;5106488;28;19939;-59
2023/08/05 07:59:28;;;;;;;;;;;21.40;56.40;;;;;;5100369;28;19932;-60
2023/08/05 08:01:57;;;;;;;;;;;21.40;56.40;;;;;;5105045;28;19927;-61
2023/08/05 08:04:23;;;;;;;;;;;21.40;56.40;;;;;;5103072;28;20513;-61
2023/08/05 08:06:52;;;;;;;;;;;21.40;56.40;;;;;;5113543;28;19927;-60
2023/08/05 08:09:18;;;;;;;;;;;21.40;56.40;;;;;;5094343;28;20018;-61
2023/08/05 08:11:45;;;;;;;;;;;21.40;56.40;;;;;;5099458;28;19958;-60
2023/08/05 08:14:12;;;;;;;;;;;21.40;56.40;;;;;;5130782;27;19931;-61
2023/08/05 08:16:39;;;;;;;;;;;21.40;56.30;;;;;;5117845;27;19924;-61
2023/08/05 08:19:07;;;;;;;;;;;21.40;56.30;;;;;;5105414;27;20499;-61
2023/08/05 08:21:34;;;;;;;;;;;21.40;56.20;;;;;;5104711;27;20452;-59
2023/08/05 08:24:01;;;;;;;;;;;21.40;56.10;;;;;;5113781;28;19930;-60
2023/08/05 08:26:27;;;;;;;;;;;21.40;56.20;;;;;;5093447;27;19924;-60
2023/08/05 08:28:54;;;;;;;;;;;21.40;56.20;;;;;;5099570;27;19924;-60
2023/08/05 08:31:21;;;;;;;;;;;21.40;56.10;;;;;;5105640;27;19928;-60
2023/08/05 08:33:48;;;;;;;;;;;21.40;56.00;;;;;;5107175;27;19924;-60
2023/08/05 08:36:16;;;;;;;;;;;21.40;55.90;;;;;;5106314;27;19969;-60
2023/08/05 08:38:43;;;;;;;;;;;21.40;55.90;;;;;;5100779;27;19923;-60
2023/08/05 08:41:10;;;;;;;;;;;21.40;55.80;;;;;;5104213;27;20337;-60
2023/08/05 08:43:37;;;;;;;;;;;21.40;55.70;;;;;;5103231;27;19947;-60
2023/08/05 08:46:05;;;;;;;;;;;21.40;55.70;;;;;;5121805;27;19924;-60
2023/08/05 08:48:31;;;;;;;;;;;21.40;55.60;;;;;;5089815;28;19928;-63
2023/08/05 08:50:58;;;;;;;;;;;21.40;55.50;;;;;;5105287;27;19923;-61
2023/08/05 08:53:26;;;;;;;;;;;21.40;55.50;;;;;;5099746;27;19967;-59
2023/08/05 08:55:53;;;;;;;;;;;21.40;55.40;;;;;;5098943;28;19932;-60
2023/08/05 08:58:20;;;;;;;;;;;21.40;55.40;;;;;;5129956;27;19931;-62
2023/08/05 09:00:47;;;;;;;;;;;21.40;55.30;;;;;;5097659;27;19927;-60
2023/08/05 09:03:14;;;;;;;;;;;21.40;55.10;;;;;;5116831;27;19995;-61
2023/08/05 09:05:41;;;;;;;;;;;21.40;55.10;;;;;;5112713;27;19923;-59
2023/08/05 09:08:08;;;;;;;;;;;21.40;55.10;;;;;;5111805;28;19971;-61
2023/08/05 09:10:37;;;;;;;;;;;21.40;55.20;;;;;;5095609;27;19927;-60
2023/08/05 09:13:04;;;;;;;;;;;21.40;55.10;;;;;;5117220;27;19923;-62
2023/08/05 09:15:31;;;;;;;;;;;21.40;55.20;;;;;;5105660;28;19927;-59
2023/08/05 09:17:58;;;;;;;;;;;21.40;55.20;;;;;;5101644;28;19973;-61
2023/08/05 09:20:25;;;;;;;;;;;21.40;55.10;;;;;;5103846;27;19951;-61
2023/08/05 09:22:55;;;;;;;;;;;21.40;55.10;;;;;;5101603;28;19931;-61
2023/08/05 09:25:21;;;;;;;;;;;21.40;55.20;;;;;;5100937;28;19932;-61
2023/08/05 09:27:50;;;;;;;;;;;21.40;55.20;;;;;;5096463;28;19923;-61
2023/08/05 09:30:17;;;;;;;;;;;21.40;55.10;;;;;;5105167;27;19969;-61
2023/08/05 09:32:44;;;;;;;;;;;21.40;55.10;;;;;;5098237;28;19977;-60
2023/08/05 09:35:11;;;;;;;;;;;21.40;55.10;;;;;;5111831;27;20026;-61
2023/08/05 09:37:38;;;;;;;;;;;21.40;55.10;;;;;;5102284;27;19923;-61
2023/08/05 09:40:06;;;;;;;;;;;21.40;55.10;;;;;;5111978;27;19929;-60
2023/08/05 09:42:33;;;;;;;;;;;21.40;55.10;;;;;;5105767;27;19943;-61
2023/08/05 09:45:08;;;;;;;;;;;21.40;55.10;;;;;;5112649;27;19923;-60
2023/08/05 09:47:35;;;;;;;;;;;21.40;55.10;;;;;;5101689;28;19924;-61
2023/08/05 09:50:04;;;;;;;;;;;21.40;54.90;;;;;;5109602;27;19931;-60
2023/08/05 09:52:32;;;;;;;;;;;21.40;54.80;;;;;;5128697;27;19923;-61
2023/08/05 09:55:00;;;;;;;;;;;21.40;54.80;;;;;;5107969;28;19923;-62
2023/08/05 09:57:27;;;;;;;;;;;21.40;54.80;;;;;;5103726;27;19931;-61
2023/08/05 09:59:54;;;;;;;;;;;21.40;54.60;;;;;;5110781;27;19957;-60
2023/08/05 10:02:25;;;;;;;;;;;21.40;54.60;;;;;;5104916;27;20341;-60
2023/08/05 10:04:53;;;;;;;;;;;21.40;54.60;;;;;;5096092;27;20017;-61
2023/08/05 10:07:20;;;;;;;;;;;21.40;54.50;;;;;;5121752;27;19923;-60
2023/08/05 10:09:47;;;;;;;;;;;21.40;54.40;;;;;;5097987;27;19924;-61
2023/08/05 10:12:14;;;;;;;;;;;21.40;54.50;;;;;;5106225;27;19923;-59
2023/08/05 10:14:40;;;;;;;;;;;21.40;54.50;;;;;;5120798;27;19924;-60
2023/08/05 10:17:07;;;;;;;;;;;21.40;54.40;;;;;;5102672;27;19928;-62
2023/08/05 10:19:35;;;;;;;;;;;21.40;54.50;;;;;;5127109;27;19930;-62
2023/08/05 10:22:09;;;;;;;;;;;21.40;54.50;;;;;;5106947;27;19924;-60
2023/08/05 10:24:51;;;;;;;;;;;21.40;54.50;;;;;;5090484;27;19958;-61
2023/08/05 10:27:18;;;;;;;;;;;21.40;54.50;;;;;;5113869;27;19973;-62
2023/08/05 10:29:51;;;;;;;;;;;21.40;54.60;;;;;;5104617;27;19927;-59
2023/08/05 10:32:18;;;;;;;;;;;21.40;54.70;;;;;;5097405;27;19924;-61
2023/08/05 10:34:47;;;;;;;;;;;21.40;54.70;;;;;;5114419;27;19931;-61
2023/08/05 10:37:14;;;;;;;;;;;21.40;54.70;;;;;;5099101;28;19924;-59
2023/08/05 10:39:43;;;;;;;;;;;21.40;54.70;;;;;;5102092;28;19953;-60
2023/08/05 10:42:32;;;;;;;;;;;21.40;54.70;;;;;;5116855;27;19931;-61
2023/08/05 10:44:59;;;;;;;;;;;21.50;54.80;;;;;;5128365;27;19919;-60
2023/08/05 10:47:25;;;;;;;;;;;21.40;54.60;;;;;;5102361;28;19933;-60
2023/08/05 10:49:57;;;;;;;;;;;21.40;54.60;;;;;;5127603;27;19927;-59
2023/08/05 10:52:23;;;;;;;;;;;21.50;54.80;;;;;;5102822;28;19928;-60
2023/08/05 10:54:50;;;;;;;;;;;21.40;54.60;;;;;;5099326;28;19975;-60
2023/08/05 10:57:38;;;;;;;;;;;21.50;54.70;;;;;;5108622;28;20528;-60
2023/08/05 11:00:07;;;;;;;;;;;21.40;54.50;;;;;;5124294;27;19934;-60
2023/08/05 11:02:34;;;;;;;;;;;21.40;54.30;;;;;;5117890;27;19927;-62
2023/08/05 11:05:07;;;;;;;;;;;21.50;54.40;;;;;;5126511;27;19928;-62
2023/08/05 11:07:35;;;;;;;;;;;21.40;54.40;;;;;;5112237;28;19927;-60
2023/08/05 11:10:02;;;;;;;;;;;21.40;54.50;;;;;;5109619;28;20404;-59
2023/08/05 11:12:30;;;;;;;;;;;21.50;54.50;;;;;;5106455;28;19931;-61
2023/08/05 11:14:57;;;;;;;;;;;21.50;54.00;;;;;;5114361;28;19924;-61
2023/08/05 11:17:24;;;;;;;;;;;21.40;53.30;;;;;;5122853;28;19932;-62
2023/08/05 11:19:50;;;;;;;;;;;21.50;53.50;;;;;;5105898;28;19924;-60
2023/08/05 11:22:23;;;;;;;;;;;21.40;53.70;;;;;;5105858;28;20035;-60
2023/08/05 11:24:54;;;;;;;;;;;21.40;53.50;;;;;;5108183;28;19931;-61
2023/08/05 11:27:21;;;;;;;;;;;21.40;53.10;;;;;;5100553;28;19928;-60
2023/08/05 11:29:48;;;;;;;;;;;21.40;52.80;;;;;;5093495;28;19924;-60
2023/08/05 11:32:15;;;;;;;;;;;21.40;53.00;;;;;;5104384;28;19923;-59
2023/08/05 11:34:41;;;;;;;;;;;21.40;53.00;;;;;;5093980;28;19927;-62
2023/08/05 11:37:08;;;;;;;;;;;21.40;52.70;;;;;;5108011;28;19996;-61
2023/08/05 11:39:36;;;;;;;;;;;21.40;52.70;;;;;;5114219;28;19930;-61
2023/08/05 11:42:04;;;;;;;;;;;21.40;53.00;;;;;;5105785;28;19924;-61
2023/08/05 11:44:30;;;;;;;;;;;21.40;53.10;;;;;;5096336;28;19954;-60
2023/08/05 11:47:01;;;;;;;;;;;21.40;53.20;;;;;;5106407;28;19928;-60
2023/08/05 11:49:28;;;;;;;;;;;21.40;53.10;;;;;;5115644;27;20052;-61
2023/08/05 11:51:55;;;;;;;;;;;21.40;53.20;;;;;;5109172;27;19929;-61
2023/08/05 11:54:26;;;;;;;;;;;21.40;53.10;;;;;;5107537;27;19973;-60
2023/08/05 11:56:54;;;;;;;;;;;21.40;52.80;;;;;;5109304;27;19931;-59
2023/08/05 11:59:35;;;;;;;;;;;21.40;52.50;;;;;;5112994;27;19939;-60
2023/08/05 12:02:02;;;;;;;;;;;21.40;52.30;;;;;;5101002;27;19927;-61
2023/08/05 12:04:29;;;;;;;;;;;21.40;52.30;;;;;;5108963;27;19935;-61
2023/08/05 12:06:56;;;;;;;;;;;21.40;52.30;;;;;;5106486;27;19923;-60
2023/08/05 12:09:23;;;;;;;;;;;21.40;52.20;;;;;;5105516;27;19923;-60
2023/08/05 12:11:57;;;;;;;;;;;21.40;51.90;;;;;;5121157;27;19928;-60
2023/08/05 12:14:25;;;;;;;;;;;21.40;52.30;;;;;;5108730;27;20448;-61
2023/08/05 12:16:58;;;;;;;;;;;21.40;52.30;;;;;;5119099;27;19927;-61
2023/08/05 12:19:26;;;;;;;;;;;21.40;52.10;;;;;;5108758;27;19928;-61
2023/08/05 12:21:52;;;;;;;;;;;21.40;51.70;;;;;;5110176;28;19927;-61
2023/08/05 12:24:19;;;;;;;;;;;21.40;51.80;;;;;;5098867;27;19928;-60
2023/08/05 12:26:46;;;;;;;;;;;21.40;51.70;;;;;;5103480;28;19930;-60
2023/08/05 12:29:14;;;;;;;;;;;21.40;52.00;;;;;;5098924;27;19931;-61
2023/08/05 12:31:41;;;;;;;;;;;21.40;52.10;;;;;;5106050;28;19981;-61
2023/08/05 12:34:08;;;;;;;;;;;21.40;52.30;;;;;;5104786;28;20258;-61
2023/08/05 12:36:35;;;;;;;;;;;21.40;52.50;;;;;;5092430;27;20291;-62
2023/08/05 12:39:01;;;;;;;;;;;21.40;52.70;;;;;;5115248;27;20292;-61
2023/08/05 12:41:28;;;;;;;;;;;21.40;52.50;;;;;;5108056;27;20012;-61
2023/08/05 12:43:55;;;;;;;;;;;21.40;52.50;;;;;;5126209;27;19927;-61
2023/08/05 12:46:23;;;;;;;;;;;21.40;52.30;;;;;;5116755;27;19980;-61
2023/08/05 12:48:50;;;;;;;;;;;21.40;52.40;;;;;;5107104;27;19927;-61
2023/08/05 12:51:17;;;;;;;;;;;21.40;52.50;;;;;;5123615;27;19927;-61
2023/08/05 12:53:43;;;;;;;;;;;21.40;52.40;;;;;;5125266;27;19923;-60
2023/08/05 12:56:10;;;;;;;;;;;21.40;52.40;;;;;;5104071;27;19936;-61
2023/08/05 12:58:37;;;;;;;;;;;21.40;52.30;;;;;;5107991;27;19923;-62
2023/08/05 13:01:04;;;;;;;;;;;21.40;52.40;;;;;;5116013;27;20329;-60
2023/08/05 13:03:32;;;;;;;;;;;21.40;52.50;;;;;;5122140;27;19928;-61
2023/08/05 13:05:59;;;;;;;;;;;21.40;52.60;;;;;;5106471;27;20291;-61
2023/08/05 13:08:26;;;;;;;;;;;21.40;52.70;;;;;;5105298;27;19950;-60
2023/08/05 13:10:55;;;;;;;;;;;21.40;52.80;;;;;;5108082;27;19924;-61
2023/08/05 13:13:21;;;;;;;;;;;21.50;52.60;;;;;;5106125;27;20006;-61
2023/08/05 13:15:48;;;;;;;;;;;21.40;52.40;;;;;;5101477;27;19976;-60
2023/08/05 13:18:15;;;;;;;;;;;21.40;52.10;;;;;;5106708;27;19928;-62
2023/08/05 13:20:43;;;;;;;;;;;21.50;52.30;;;;;;5106186;27;19923;-60
2023/08/05 13:23:10;;;;;;;;;;;21.50;52.40;;;;;;5124928;27;19931;-60
2023/08/05 13:25:37;;;;;;;;;;;21.40;52.30;;;;;;5105139;27;19923;-62
2023/08/05 13:28:04;;;;;;;;;;;21.40;52.40;;;;;;5106642;28;19928;-58
2023/08/05 13:30:30;;;;;;;;;;;21.40;52.30;;;;;;5103899;27;19931;-60
2023/08/05 13:32:57;;;;;;;;;;;21.40;52.10;;;;;;5107101;27;20265;-61
2023/08/05 13:35:24;;;;;;;;;;;21.40;52.00;;;;;;5098795;27;19931;-60
2023/08/05 13:37:52;;;;;;;;;;;21.50;51.80;;;;;;5121732;27;19932;-60
2023/08/05 13:40:19;;;;;;;;;;;21.40;51.80;;;;;;5129055;27;19924;-62
2023/08/05 13:42:46;;;;;;;;;;;21.40;51.40;;;;;;5115828;27;19950;-59
2023/08/05 13:45:12;;;;;;;;;;;21.40;51.20;;;;;;5115500;27;19924;-61
2023/08/05 13:47:39;;;;;;;;;;;21.40;51.20;;;;;;5108782;28;19928;-62
2023/08/05 13:50:07;;;;;;;;;;;21.40;51.10;;;;;;5094468;27;19927;-61
2023/08/05 13:52:34;;;;;;;;;;;21.40;51.20;;;;;;5120199;27;19924;-61
2023/08/05 13:55:02;;;;;;;;;;;21.40;51.30;;;;;;5095084;28;19923;-59
2023/08/05 13:57:29;;;;;;;;;;;21.40;51.50;;;;;;5105281;27;20030;-60
2023/08/05 13:59:57;;;;;;;;;;;21.40;51.60;;;;;;5126810;27;19931;-61
2023/08/05 14:02:24;;;;;;;;;;;21.40;51.60;;;;;;5104723;27;19927;-61
2023/08/05 14:04:51;;;;;;;;;;;21.40;51.60;;;;;;5108640;27;19927;-59
2023/08/05 14:07:18;;;;;;;;;;;21.40;51.40;;;;;;5121305;27;19945;-61
2023/08/05 14:09:45;;;;;;;;;;;21.40;51.40;;;;;;5084618;27;19923;-61
2023/08/05 14:12:13;;;;;;;;;;;21.40;51.50;;;;;;5113604;27;19924;-61
2023/08/05 14:14:40;;;;;;;;;;;21.40;51.60;;;;;;5107752;27;19924;-62
2023/08/05 14:17:06;;;;;;;;;;;21.40;51.20;;;;;;5107098;27;19996;-61